sensor_id;sensor_type;location;lat;lon;timestamp;P1;durP1;ratioP1;P2;durP2;ratioP2
20462;SDS011;10390;53.566;9.980;2023-07-22T00:00:40;4.40;;;4.00;;
20462;SDS011;10390;53.566;9.980;2023-07-22T00:03:05;4.97;;;3.85;;
20462;SDS011;10390;53.566;9.980;2023-07-22T00:05:31;5.43;;;4.35;;
20462;SDS011;10390;53.566;9.980;2023-07-22T00:07:59;5.43;;;4.93;;
20462;SDS011;10390;53.566;9.980;2023-07-22T00:10:25;4.72;;;4.22;;
20462;SDS011;10390;53.566;9.980;2023-07-22T00:12:50;5.10;;;4.50;;
20462;SDS011;10390;53.566;9.980;2023-07-22T00:15:16;5.10;;;4.60;;
20462;SDS011;10390;53.566;9.980;2023-07-22T00:17:41;5.30;;;4.63;;
20462;SDS011;10390;53.566;9.980;2023-07-22T00:20:08;4.82;;;4.32;;
20462;SDS011;10390;53.566;9.980;2023-07-22T00:22:36;4.90;;;4.30;;
20462;SDS011;10390;53.566;9.980;2023-07-22T00:25:03;5.28;;;4.78;;
20462;SDS011;10390;53.566;9.980;2023-07-22T00:27:29;5.25;;;4.75;;
20462;SDS011;10390;53.566;9.980;2023-07-22T00:29:55;4.72;;;4.22;;
20462;SDS011;10390;53.566;9.980;2023-07-22T00:32:20;5.10;;;4.60;;
20462;SDS011;10390;53.566;9.980;2023-07-22T00:34:46;4.80;;;4.30;;
20462;SDS011;10390;53.566;9.980;2023-07-22T00:37:11;5.40;;;4.53;;
20462;SDS011;10390;53.566;9.980;2023-07-22T00:39:37;4.75;;;4.25;;
20462;SDS011;10390;53.566;9.980;2023-07-22T00:42:02;5.03;;;4.53;;
20462;SDS011;10390;53.566;9.980;2023-07-22T00:44:28;5.22;;;4.60;;
20462;SDS011;10390;53.566;9.980;2023-07-22T00:46:54;5.40;;;4.50;;
20462;SDS011;10390;53.566;9.980;2023-07-22T00:49:22;5.35;;;4.63;;
20462;SDS011;10390;53.566;9.980;2023-07-22T00:51:50;4.88;;;4.20;;
20462;SDS011;10390;53.566;9.980;2023-07-22T00:54:15;4.95;;;4.45;;
20462;SDS011;10390;53.566;9.980;2023-07-22T00:56:41;5.10;;;4.60;;
20462;SDS011;10390;53.566;9.980;2023-07-22T00:59:08;5.03;;;4.53;;
20462;SDS011;10390;53.566;9.980;2023-07-22T01:01:34;4.80;;;4.30;;
20462;SDS011;10390;53.566;9.980;2023-07-22T01:03:59;4.60;;;4.03;;
20462;SDS011;10390;53.566;9.980;2023-07-22T01:06:26;4.90;;;4.30;;
20462;SDS011;10390;53.566;9.980;2023-07-22T01:08:56;4.80;;;4.32;;
20462;SDS011;10390;53.566;9.980;2023-07-22T01:11:23;5.00;;;4.50;;
20462;SDS011;10390;53.566;9.980;2023-07-22T01:13:49;5.03;;;4.30;;
20462;SDS011;10390;53.566;9.980;2023-07-22T01:16:14;4.68;;;4.18;;
20462;SDS011;10390;53.566;9.980;2023-07-22T01:18:40;4.93;;;4.32;;
20462;SDS011;10390;53.566;9.980;2023-07-22T01:21:07;4.90;;;4.40;;
20462;SDS011;10390;53.566;9.980;2023-07-22T01:23:34;5.15;;;4.55;;
20462;SDS011;10390;53.566;9.980;2023-07-22T01:26:01;4.75;;;4.18;;
20462;SDS011;10390;53.566;9.980;2023-07-22T01:28:28;4.60;;;4.03;;
20462;SDS011;10390;53.566;9.980;2023-07-22T01:30:53;6.50;;;4.47;;
20462;SDS011;10390;53.566;9.980;2023-07-22T01:33:19;4.88;;;4.38;;
20462;SDS011;10390;53.566;9.980;2023-07-22T01:35:45;5.22;;;4.72;;
20462;SDS011;10390;53.566;9.980;2023-07-22T01:38:11;4.82;;;4.30;;
20462;SDS011;10390;53.566;9.980;2023-07-22T01:40:36;4.97;;;4.47;;
20462;SDS011;10390;53.566;9.980;2023-07-22T01:43:03;5.38;;;4.80;;
20462;SDS011;10390;53.566;9.980;2023-07-22T01:45:28;5.18;;;4.68;;
20462;SDS011;10390;53.566;9.980;2023-07-22T01:47:54;5.35;;;4.57;;
20462;SDS011;10390;53.566;9.980;2023-07-22T01:50:19;5.30;;;4.25;;
20462;SDS011;10390;53.566;9.980;2023-07-22T01:52:45;5.03;;;4.53;;
20462;SDS011;10390;53.566;9.980;2023-07-22T01:55:13;5.38;;;4.75;;
20462;SDS011;10390;53.566;9.980;2023-07-22T01:57:39;5.03;;;4.53;;
20462;SDS011;10390;53.566;9.980;2023-07-22T02:00:05;5.10;;;4.60;;
20462;SDS011;10390;53.566;9.980;2023-07-22T02:02:33;4.63;;;4.05;;
20462;SDS011;10390;53.566;9.980;2023-07-22T02:04:58;5.15;;;4.35;;
20462;SDS011;10390;53.566;9.980;2023-07-22T02:07:24;5.03;;;4.53;;
20462;SDS011;10390;53.566;9.980;2023-07-22T02:09:51;5.35;;;4.85;;
20462;SDS011;10390;53.566;9.980;2023-07-22T02:12:17;5.35;;;4.70;;
20462;SDS011;10390;53.566;9.980;2023-07-22T02:14:42;5.13;;;4.35;;
20462;SDS011;10390;53.566;9.980;2023-07-22T02:17:08;5.75;;;5.15;;
20462;SDS011;10390;53.566;9.980;2023-07-22T02:19:34;4.85;;;4.35;;
20462;SDS011;10390;53.566;9.980;2023-07-22T02:22:00;5.05;;;4.55;;
20462;SDS011;10390;53.566;9.980;2023-07-22T02:24:25;6.85;;;5.10;;
20462;SDS011;10390;53.566;9.980;2023-07-22T02:26:51;5.20;;;4.70;;
20462;SDS011;10390;53.566;9.980;2023-07-22T02:29:16;5.70;;;5.10;;
20462;SDS011;10390;53.566;9.980;2023-07-22T02:31:44;5.13;;;4.63;;
20462;SDS011;10390;53.566;9.980;2023-07-22T02:34:11;5.90;;;5.30;;
20462;SDS011;10390;53.566;9.980;2023-07-22T02:36:37;5.40;;;4.80;;
20462;SDS011;10390;53.566;9.980;2023-07-22T02:39:02;5.70;;;4.93;;
20462;SDS011;10390;53.566;9.980;2023-07-22T02:41:28;5.57;;;5.07;;
20462;SDS011;10390;53.566;9.980;2023-07-22T02:43:54;5.30;;;4.57;;
20462;SDS011;10390;53.566;9.980;2023-07-22T02:46:19;5.53;;;4.38;;
20462;SDS011;10390;53.566;9.980;2023-07-22T02:48:45;5.45;;;4.57;;
20462;SDS011;10390;53.566;9.980;2023-07-22T02:51:11;5.53;;;5.03;;
20462;SDS011;10390;53.566;9.980;2023-07-22T02:53:36;5.28;;;4.72;;
20462;SDS011;10390;53.566;9.980;2023-07-22T02:56:03;5.20;;;4.70;;
20462;SDS011;10390;53.566;9.980;2023-07-22T02:58:32;5.38;;;4.85;;
20462;SDS011;10390;53.566;9.980;2023-07-22T03:00:58;5.03;;;4.07;;
20462;SDS011;10390;53.566;9.980;2023-07-22T03:03:24;5.15;;;4.45;;
20462;SDS011;10390;53.566;9.980;2023-07-22T03:05:50;4.88;;;3.92;;
20462;SDS011;10390;53.566;9.980;2023-07-22T03:08:17;4.90;;;4.20;;
20462;SDS011;10390;53.566;9.980;2023-07-22T03:10:43;5.40;;;4.50;;
20462;SDS011;10390;53.566;9.980;2023-07-22T03:13:13;5.63;;;4.35;;
20462;SDS011;10390;53.566;9.980;2023-07-22T03:15:41;5.00;;;4.50;;
20462;SDS011;10390;53.566;9.980;2023-07-22T03:18:07;5.32;;;4.45;;
20462;SDS011;10390;53.566;9.980;2023-07-22T03:20:34;5.00;;;4.50;;
20462;SDS011;10390;53.566;9.980;2023-07-22T03:23:01;5.57;;;4.65;;
20462;SDS011;10390;53.566;9.980;2023-07-22T03:25:27;4.95;;;4.10;;
20462;SDS011;10390;53.566;9.980;2023-07-22T03:27:52;4.93;;;4.07;;
20462;SDS011;10390;53.566;9.980;2023-07-22T03:30:21;4.90;;;4.18;;
20462;SDS011;10390;53.566;9.980;2023-07-22T03:32:47;5.30;;;4.50;;
20462;SDS011;10390;53.566;9.980;2023-07-22T03:35:15;4.80;;;4.30;;
20462;SDS011;10390;53.566;9.980;2023-07-22T03:37:41;4.70;;;4.05;;
20462;SDS011;10390;53.566;9.980;2023-07-22T03:40:07;4.45;;;3.80;;
20462;SDS011;10390;53.566;9.980;2023-07-22T03:42:42;5.07;;;4.38;;
20462;SDS011;10390;53.566;9.980;2023-07-22T03:45:08;5.30;;;4.15;;
20462;SDS011;10390;53.566;9.980;2023-07-22T03:47:35;5.35;;;4.40;;
20462;SDS011;10390;53.566;9.980;2023-07-22T03:50:00;5.45;;;4.60;;
20462;SDS011;10390;53.566;9.980;2023-07-22T03:52:26;5.20;;;4.22;;
20462;SDS011;10390;53.566;9.980;2023-07-22T03:54:52;5.18;;;4.15;;
20462;SDS011;10390;53.566;9.980;2023-07-22T03:57:17;5.25;;;4.43;;
20462;SDS011;10390;53.566;9.980;2023-07-22T03:59:43;4.80;;;3.80;;
20462;SDS011;10390;53.566;9.980;2023-07-22T04:02:08;4.68;;;4.15;;
20462;SDS011;10390;53.566;9.980;2023-07-22T04:04:34;5.20;;;4.60;;
20462;SDS011;10390;53.566;9.980;2023-07-22T04:06:59;5.68;;;4.57;;
20462;SDS011;10390;53.566;9.980;2023-07-22T04:09:26;4.70;;;4.20;;
20462;SDS011;10390;53.566;9.980;2023-07-22T04:11:52;5.75;;;4.65;;
20462;SDS011;10390;53.566;9.980;2023-07-22T04:14:18;5.93;;;4.38;;
20462;SDS011;10390;53.566;9.980;2023-07-22T04:16:43;5.22;;;4.38;;
20462;SDS011;10390;53.566;9.980;2023-07-22T04:19:09;5.45;;;4.25;;
20462;SDS011;10390;53.566;9.980;2023-07-22T04:21:34;4.97;;;4.30;;
20462;SDS011;10390;53.566;9.980;2023-07-22T04:24:00;4.70;;;4.18;;
20462;SDS011;10390;53.566;9.980;2023-07-22T04:26:26;5.22;;;4.32;;
20462;SDS011;10390;53.566;9.980;2023-07-22T04:28:51;5.22;;;4.55;;
20462;SDS011;10390;53.566;9.980;2023-07-22T04:31:17;5.50;;;4.50;;
20462;SDS011;10390;53.566;9.980;2023-07-22T04:33:43;5.47;;;4.90;;
20462;SDS011;10390;53.566;9.980;2023-07-22T04:36:09;5.40;;;4.90;;
20462;SDS011;10390;53.566;9.980;2023-07-22T04:38:34;5.75;;;5.20;;
20462;SDS011;10390;53.566;9.980;2023-07-22T04:41:02;5.68;;;5.07;;
20462;SDS011;10390;53.566;9.980;2023-07-22T04:43:28;5.78;;;5.13;;
20462;SDS011;10390;53.566;9.980;2023-07-22T04:45:54;5.47;;;4.85;;
20462;SDS011;10390;53.566;9.980;2023-07-22T04:48:20;5.50;;;4.60;;
20462;SDS011;10390;53.566;9.980;2023-07-22T04:50:50;6.70;;;4.93;;
20462;SDS011;10390;53.566;9.980;2023-07-22T04:53:16;5.38;;;4.88;;
20462;SDS011;10390;53.566;9.980;2023-07-22T04:55:42;5.15;;;4.65;;
20462;SDS011;10390;53.566;9.980;2023-07-22T04:58:08;5.68;;;5.10;;
20462;SDS011;10390;53.566;9.980;2023-07-22T05:00:35;5.60;;;4.85;;
20462;SDS011;10390;53.566;9.980;2023-07-22T05:03:02;5.68;;;4.43;;
20462;SDS011;10390;53.566;9.980;2023-07-22T05:05:28;5.25;;;4.30;;
20462;SDS011;10390;53.566;9.980;2023-07-22T05:07:54;5.10;;;4.53;;
20462;SDS011;10390;53.566;9.980;2023-07-22T05:10:20;5.55;;;4.95;;
20462;SDS011;10390;53.566;9.980;2023-07-22T05:12:45;5.18;;;4.60;;
20462;SDS011;10390;53.566;9.980;2023-07-22T05:15:11;4.82;;;4.32;;
20462;SDS011;10390;53.566;9.980;2023-07-22T05:17:38;5.68;;;5.15;;
20462;SDS011;10390;53.566;9.980;2023-07-22T05:20:04;5.20;;;4.70;;
20462;SDS011;10390;53.566;9.980;2023-07-22T05:22:37;5.15;;;4.50;;
20462;SDS011;10390;53.566;9.980;2023-07-22T05:25:04;6.32;;;5.35;;
20462;SDS011;10390;53.566;9.980;2023-07-22T05:27:31;5.00;;;4.50;;
20462;SDS011;10390;53.566;9.980;2023-07-22T05:29:56;5.72;;;5.13;;
20462;SDS011;10390;53.566;9.980;2023-07-22T05:32:22;5.15;;;4.38;;
20462;SDS011;10390;53.566;9.980;2023-07-22T05:34:47;5.20;;;4.70;;
20462;SDS011;10390;53.566;9.980;2023-07-22T05:37:13;5.07;;;4.57;;
20462;SDS011;10390;53.566;9.980;2023-07-22T05:39:38;5.63;;;5.03;;
20462;SDS011;10390;53.566;9.980;2023-07-22T05:42:04;5.05;;;4.55;;
20462;SDS011;10390;53.566;9.980;2023-07-22T05:44:30;5.88;;;5.28;;
20462;SDS011;10390;53.566;9.980;2023-07-22T05:46:55;5.78;;;5.28;;
20462;SDS011;10390;53.566;9.980;2023-07-22T05:49:21;5.20;;;4.70;;
20462;SDS011;10390;53.566;9.980;2023-07-22T05:51:47;5.63;;;5.10;;
20462;SDS011;10390;53.566;9.980;2023-07-22T05:54:12;5.45;;;4.80;;
20462;SDS011;10390;53.566;9.980;2023-07-22T05:56:38;5.57;;;4.93;;
20462;SDS011;10390;53.566;9.980;2023-07-22T05:59:03;5.65;;;5.15;;
20462;SDS011;10390;53.566;9.980;2023-07-22T06:01:29;5.78;;;5.18;;
20462;SDS011;10390;53.566;9.980;2023-07-22T06:03:55;5.70;;;5.00;;
20462;SDS011;10390;53.566;9.980;2023-07-22T06:06:20;5.88;;;5.28;;
20462;SDS011;10390;53.566;9.980;2023-07-22T06:08:46;5.57;;;5.07;;
20462;SDS011;10390;53.566;9.980;2023-07-22T06:11:11;5.82;;;5.30;;
20462;SDS011;10390;53.566;9.980;2023-07-22T06:13:37;6.03;;;5.43;;
20462;SDS011;10390;53.566;9.980;2023-07-22T06:16:03;5.75;;;5.25;;
20462;SDS011;10390;53.566;9.980;2023-07-22T06:18:28;5.93;;;5.32;;
20462;SDS011;10390;53.566;9.980;2023-07-22T06:20:54;5.90;;;5.30;;
20462;SDS011;10390;53.566;9.980;2023-07-22T06:23:20;5.53;;;5.03;;
20462;SDS011;10390;53.566;9.980;2023-07-22T06:25:45;5.25;;;4.75;;
20462;SDS011;10390;53.566;9.980;2023-07-22T06:28:11;6.20;;;5.60;;
20462;SDS011;10390;53.566;9.980;2023-07-22T06:30:36;5.50;;;5.00;;
20462;SDS011;10390;53.566;9.980;2023-07-22T06:33:02;5.75;;;5.25;;
20462;SDS011;10390;53.566;9.980;2023-07-22T06:35:28;5.43;;;4.93;;
20462;SDS011;10390;53.566;9.980;2023-07-22T06:37:53;5.63;;;5.13;;
20462;SDS011;10390;53.566;9.980;2023-07-22T06:40:19;5.38;;;4.88;;
20462;SDS011;10390;53.566;9.980;2023-07-22T06:42:44;5.90;;;5.30;;
20462;SDS011;10390;53.566;9.980;2023-07-22T06:45:10;5.63;;;5.07;;
20462;SDS011;10390;53.566;9.980;2023-07-22T06:47:36;5.78;;;5.28;;
20462;SDS011;10390;53.566;9.980;2023-07-22T06:50:02;5.78;;;4.72;;
20462;SDS011;10390;53.566;9.980;2023-07-22T06:52:29;5.60;;;5.03;;
20462;SDS011;10390;53.566;9.980;2023-07-22T06:54:58;5.40;;;4.90;;
20462;SDS011;10390;53.566;9.980;2023-07-22T06:57:23;5.68;;;5.18;;
20462;SDS011;10390;53.566;9.980;2023-07-22T06:59:51;5.47;;;4.97;;
20462;SDS011;10390;53.566;9.980;2023-07-22T07:02:19;5.50;;;5.00;;
20462;SDS011;10390;53.566;9.980;2023-07-22T07:04:46;5.57;;;4.78;;
20462;SDS011;10390;53.566;9.980;2023-07-22T07:07:12;5.80;;;5.30;;
20462;SDS011;10390;53.566;9.980;2023-07-22T07:09:38;5.72;;;5.20;;
20462;SDS011;10390;53.566;9.980;2023-07-22T07:12:04;5.70;;;5.20;;
20462;SDS011;10390;53.566;9.980;2023-07-22T07:14:30;5.53;;;4.95;;
20462;SDS011;10390;53.566;9.980;2023-07-22T07:16:57;5.70;;;5.20;;
20462;SDS011;10390;53.566;9.980;2023-07-22T07:19:23;5.70;;;5.10;;
20462;SDS011;10390;53.566;9.980;2023-07-22T07:21:48;5.70;;;5.20;;
20462;SDS011;10390;53.566;9.980;2023-07-22T07:24:14;5.63;;;5.00;;
20462;SDS011;10390;53.566;9.980;2023-07-22T07:26:40;5.70;;;5.20;;
20462;SDS011;10390;53.566;9.980;2023-07-22T07:29:06;5.97;;;5.38;;
20462;SDS011;10390;53.566;9.980;2023-07-22T07:31:31;5.50;;;5.00;;
20462;SDS011;10390;53.566;9.980;2023-07-22T07:33:57;5.63;;;5.03;;
20462;SDS011;10390;53.566;9.980;2023-07-22T07:36:23;5.70;;;5.10;;
20462;SDS011;10390;53.566;9.980;2023-07-22T07:38:48;6.47;;;5.38;;
20462;SDS011;10390;53.566;9.980;2023-07-22T07:41:14;5.43;;;4.93;;
20462;SDS011;10390;53.566;9.980;2023-07-22T07:43:40;5.43;;;4.93;;
20462;SDS011;10390;53.566;9.980;2023-07-22T07:46:19;5.60;;;5.10;;
20462;SDS011;10390;53.566;9.980;2023-07-22T07:48:53;5.88;;;5.07;;
20462;SDS011;10390;53.566;9.980;2023-07-22T07:51:24;6.07;;;5.47;;
20462;SDS011;10390;53.566;9.980;2023-07-22T07:53:51;6.28;;;5.68;;
20462;SDS011;10390;53.566;9.980;2023-07-22T07:56:17;5.60;;;5.10;;
20462;SDS011;10390;53.566;9.980;2023-07-22T07:58:44;6.25;;;5.65;;
20462;SDS011;10390;53.566;9.980;2023-07-22T08:01:10;6.28;;;5.78;;
20462;SDS011;10390;53.566;9.980;2023-07-22T08:03:37;6.10;;;5.50;;
20462;SDS011;10390;53.566;9.980;2023-07-22T08:06:03;6.07;;;5.57;;
20462;SDS011;10390;53.566;9.980;2023-07-22T08:08:29;5.93;;;5.43;;
20462;SDS011;10390;53.566;9.980;2023-07-22T08:11:13;6.07;;;5.50;;
20462;SDS011;10390;53.566;9.980;2023-07-22T08:13:40;6.40;;;5.80;;
20462;SDS011;10390;53.566;9.980;2023-07-22T08:16:07;6.95;;;6.38;;
20462;SDS011;10390;53.566;9.980;2023-07-22T08:18:33;6.10;;;5.50;;
20462;SDS011;10390;53.566;9.980;2023-07-22T08:21:01;6.65;;;6.05;;
20462;SDS011;10390;53.566;9.980;2023-07-22T08:23:28;6.75;;;6.15;;
20462;SDS011;10390;53.566;9.980;2023-07-22T08:25:53;6.90;;;6.30;;
20462;SDS011;10390;53.566;9.980;2023-07-22T08:28:19;6.53;;;5.93;;
20462;SDS011;10390;53.566;9.980;2023-07-22T08:30:45;6.63;;;6.03;;
20462;SDS011;10390;53.566;9.980;2023-07-22T08:33:13;6.85;;;6.15;;
20462;SDS011;10390;53.566;9.980;2023-07-22T08:35:39;6.20;;;5.70;;
20462;SDS011;10390;53.566;9.980;2023-07-22T08:38:06;5.68;;;5.18;;
20462;SDS011;10390;53.566;9.980;2023-07-22T08:40:38;6.05;;;5.55;;
20462;SDS011;10390;53.566;9.980;2023-07-22T08:43:06;5.65;;;5.15;;
20462;SDS011;10390;53.566;9.980;2023-07-22T08:45:34;6.35;;;5.70;;
20462;SDS011;10390;53.566;9.980;2023-07-22T08:51:03;6.40;;;5.80;;
20462;SDS011;10390;53.566;9.980;2023-07-22T08:53:31;6.95;;;6.25;;
20462;SDS011;10390;53.566;9.980;2023-07-22T08:55:58;6.20;;;5.55;;
20462;SDS011;10390;53.566;9.980;2023-07-22T08:58:24;6.45;;;5.95;;
20462;SDS011;10390;53.566;9.980;2023-07-22T09:00:51;5.68;;;5.18;;
20462;SDS011;10390;53.566;9.980;2023-07-22T09:03:16;6.20;;;5.60;;
20462;SDS011;10390;53.566;9.980;2023-07-22T09:05:43;6.10;;;5.53;;
20462;SDS011;10390;53.566;9.980;2023-07-22T09:08:10;6.10;;;5.60;;
20462;SDS011;10390;53.566;9.980;2023-07-22T09:10:36;6.57;;;6.07;;
20462;SDS011;10390;53.566;9.980;2023-07-22T09:13:03;6.75;;;6.15;;
20462;SDS011;10390;53.566;9.980;2023-07-22T09:15:29;6.75;;;6.15;;
20462;SDS011;10390;53.566;9.980;2023-07-22T09:17:59;6.78;;;6.22;;
20462;SDS011;10390;53.566;9.980;2023-07-22T09:20:25;6.72;;;6.13;;
20462;SDS011;10390;53.566;9.980;2023-07-22T09:22:53;6.80;;;6.30;;
20462;SDS011;10390;53.566;9.980;2023-07-22T09:25:20;5.78;;;5.25;;
20462;SDS011;10390;53.566;9.980;2023-07-22T09:27:47;6.88;;;6.28;;
20462;SDS011;10390;53.566;9.980;2023-07-22T09:32:58;6.18;;;5.65;;
20462;SDS011;10390;53.566;9.980;2023-07-22T09:35:30;6.22;;;5.72;;
20462;SDS011;10390;53.566;9.980;2023-07-22T09:38:07;6.30;;;5.80;;
20462;SDS011;10390;53.566;9.980;2023-07-22T09:40:32;6.88;;;6.18;;
20462;SDS011;10390;53.566;9.980;2023-07-22T09:43:01;6.03;;;5.50;;
20462;SDS011;10390;53.566;9.980;2023-07-22T09:45:28;6.25;;;5.65;;
20462;SDS011;10390;53.566;9.980;2023-07-22T09:47:55;6.20;;;5.70;;
20462;SDS011;10390;53.566;9.980;2023-07-22T09:50:22;5.70;;;5.20;;
20462;SDS011;10390;53.566;9.980;2023-07-22T09:52:53;6.20;;;5.70;;
20462;SDS011;10390;53.566;9.980;2023-07-22T09:55:23;5.93;;;5.43;;
20462;SDS011;10390;53.566;9.980;2023-07-22T09:57:50;6.00;;;5.47;;
20462;SDS011;10390;53.566;9.980;2023-07-22T10:00:20;6.18;;;5.65;;
20462;SDS011;10390;53.566;9.980;2023-07-22T10:02:48;5.90;;;5.40;;
20462;SDS011;10390;53.566;9.980;2023-07-22T10:05:20;6.13;;;5.63;;
20462;SDS011;10390;53.566;9.980;2023-07-22T10:07:54;6.35;;;5.75;;
20462;SDS011;10390;53.566;9.980;2023-07-22T10:10:22;6.00;;;5.40;;
20462;SDS011;10390;53.566;9.980;2023-07-22T10:12:56;5.70;;;5.07;;
20462;SDS011;10390;53.566;9.980;2023-07-22T10:15:22;5.60;;;5.10;;
20462;SDS011;10390;53.566;9.980;2023-07-22T10:17:51;6.30;;;5.72;;
20462;SDS011;10390;53.566;9.980;2023-07-22T10:20:18;5.13;;;4.63;;
20462;SDS011;10390;53.566;9.980;2023-07-22T10:22:45;5.28;;;4.72;;
20462;SDS011;10390;53.566;9.980;2023-07-22T10:25:13;5.63;;;5.03;;
20462;SDS011;10390;53.566;9.980;2023-07-22T10:27:40;5.40;;;4.90;;
20462;SDS011;10390;53.566;9.980;2023-07-22T10:30:10;5.07;;;4.57;;
20462;SDS011;10390;53.566;9.980;2023-07-22T10:32:39;5.47;;;4.97;;
20462;SDS011;10390;53.566;9.980;2023-07-22T10:35:14;6.28;;;5.60;;
20462;SDS011;10390;53.566;9.980;2023-07-22T10:38:08;5.85;;;5.30;;
20462;SDS011;10390;53.566;9.980;2023-07-22T10:43:10;5.72;;;5.13;;
20462;SDS011;10390;53.566;9.980;2023-07-22T10:45:40;6.20;;;5.60;;
20462;SDS011;10390;53.566;9.980;2023-07-22T10:48:10;5.78;;;4.88;;
20462;SDS011;10390;53.566;9.980;2023-07-22T10:51:20;5.38;;;4.80;;
20462;SDS011;10390;53.566;9.980;2023-07-22T10:53:30;6.05;;;4.70;;
20462;SDS011;10390;53.566;9.980;2023-07-22T10:59:17;7.07;;;5.38;;
20462;SDS011;10390;53.566;9.980;2023-07-22T11:01:24;5.35;;;4.85;;
20462;SDS011;10390;53.566;9.980;2023-07-22T11:04:10;5.15;;;4.65;;
20462;SDS011;10390;53.566;9.980;2023-07-22T11:06:40;4.95;;;4.32;;
20462;SDS011;10390;53.566;9.980;2023-07-22T11:14:31;5.40;;;4.90;;
20462;SDS011;10390;53.566;9.980;2023-07-22T11:16:58;5.07;;;4.57;;
20462;SDS011;10390;53.566;9.980;2023-07-22T11:19:26;5.05;;;4.55;;
20462;SDS011;10390;53.566;9.980;2023-07-22T11:21:52;5.57;;;5.00;;
20462;SDS011;10390;53.566;9.980;2023-07-22T11:24:19;5.97;;;5.38;;
20462;SDS011;10390;53.566;9.980;2023-07-22T11:26:46;6.15;;;5.65;;
20462;SDS011;10390;53.566;9.980;2023-07-22T11:29:12;5.50;;;5.00;;
20462;SDS011;10390;53.566;9.980;2023-07-22T11:31:40;6.05;;;5.45;;
20462;SDS011;10390;53.566;9.980;2023-07-22T11:34:11;5.63;;;5.13;;
20462;SDS011;10390;53.566;9.980;2023-07-22T11:36:37;5.70;;;5.20;;
20462;SDS011;10390;53.566;9.980;2023-07-22T11:39:07;5.82;;;5.30;;
20462;SDS011;10390;53.566;9.980;2023-07-22T11:41:34;5.43;;;4.93;;
20462;SDS011;10390;53.566;9.980;2023-07-22T11:44:01;5.57;;;4.88;;
20462;SDS011;10390;53.566;9.980;2023-07-22T11:46:28;5.57;;;5.07;;
20462;SDS011;10390;53.566;9.980;2023-07-22T11:48:54;8.98;;;5.10;;
20462;SDS011;10390;53.566;9.980;2023-07-22T11:51:21;6.25;;;5.65;;
20462;SDS011;10390;53.566;9.980;2023-07-22T11:53:49;6.20;;;5.63;;
20462;SDS011;10390;53.566;9.980;2023-07-22T11:56:22;6.20;;;5.60;;
20462;SDS011;10390;53.566;9.980;2023-07-22T11:58:51;5.40;;;4.90;;
20462;SDS011;10390;53.566;9.980;2023-07-22T12:01:17;6.20;;;5.13;;
20462;SDS011;10390;53.566;9.980;2023-07-22T12:03:44;6.30;;;5.70;;
20462;SDS011;10390;53.566;9.980;2023-07-22T12:06:09;5.72;;;5.20;;
20462;SDS011;10390;53.566;9.980;2023-07-22T12:08:36;6.28;;;5.10;;
20462;SDS011;10390;53.566;9.980;2023-07-22T12:11:08;6.10;;;5.50;;
20462;SDS011;10390;53.566;9.980;2023-07-22T12:13:36;5.80;;;5.30;;
20462;SDS011;10390;53.566;9.980;2023-07-22T12:16:03;5.70;;;5.20;;
20462;SDS011;10390;53.566;9.980;2023-07-22T12:18:46;5.30;;;4.80;;
20462;SDS011;10390;53.566;9.980;2023-07-22T12:21:12;5.40;;;4.90;;
20462;SDS011;10390;53.566;9.980;2023-07-22T12:23:39;6.20;;;5.60;;
20462;SDS011;10390;53.566;9.980;2023-07-22T12:26:07;5.32;;;4.82;;
20462;SDS011;10390;53.566;9.980;2023-07-22T12:28:33;5.90;;;5.32;;
20462;SDS011;10390;53.566;9.980;2023-07-22T12:30:59;6.45;;;4.75;;
20462;SDS011;10390;53.566;9.980;2023-07-22T12:33:28;5.75;;;5.18;;
20462;SDS011;10390;53.566;9.980;2023-07-22T12:35:55;5.32;;;4.82;;
20462;SDS011;10390;53.566;9.980;2023-07-22T12:38:22;6.38;;;4.97;;
20462;SDS011;10390;53.566;9.980;2023-07-22T12:40:48;5.50;;;5.00;;
20462;SDS011;10390;53.566;9.980;2023-07-22T12:43:13;5.78;;;5.15;;
20462;SDS011;10390;53.566;9.980;2023-07-22T12:45:47;5.60;;;5.10;;
20462;SDS011;10390;53.566;9.980;2023-07-22T12:48:15;5.68;;;5.18;;
20462;SDS011;10390;53.566;9.980;2023-07-22T12:50:42;5.85;;;5.25;;
20462;SDS011;10390;53.566;9.980;2023-07-22T12:53:12;5.68;;;5.18;;
20462;SDS011;10390;53.566;9.980;2023-07-22T12:55:38;5.68;;;5.07;;
20462;SDS011;10390;53.566;9.980;2023-07-22T12:58:04;5.43;;;4.93;;
20462;SDS011;10390;53.566;9.980;2023-07-22T13:00:30;6.13;;;5.57;;
20462;SDS011;10390;53.566;9.980;2023-07-22T13:03:01;6.10;;;5.50;;
20462;SDS011;10390;53.566;9.980;2023-07-22T13:05:27;6.00;;;5.25;;
20462;SDS011;10390;53.566;9.980;2023-07-22T13:07:55;5.93;;;5.30;;
20462;SDS011;10390;53.566;9.980;2023-07-22T13:10:22;6.57;;;5.72;;
20462;SDS011;10390;53.566;9.980;2023-07-22T13:12:51;5.88;;;5.28;;
20462;SDS011;10390;53.566;9.980;2023-07-22T13:15:19;5.95;;;5.38;;
20462;SDS011;10390;53.566;9.980;2023-07-22T13:17:44;6.38;;;5.47;;
20462;SDS011;10390;53.566;9.980;2023-07-22T13:20:10;6.10;;;5.50;;
20462;SDS011;10390;53.566;9.980;2023-07-22T13:22:37;7.15;;;5.60;;
20462;SDS011;10390;53.566;9.980;2023-07-22T13:25:06;6.53;;;5.88;;
20462;SDS011;10390;53.566;9.980;2023-07-22T13:27:35;5.68;;;5.18;;
20462;SDS011;10390;53.566;9.980;2023-07-22T13:30:06;6.20;;;5.60;;
20462;SDS011;10390;53.566;9.980;2023-07-22T13:32:35;6.72;;;5.97;;
20462;SDS011;10390;53.566;9.980;2023-07-22T13:35:04;6.35;;;5.75;;
20462;SDS011;10390;53.566;9.980;2023-07-22T13:37:31;6.75;;;6.05;;
20462;SDS011;10390;53.566;9.980;2023-07-22T13:39:59;7.10;;;6.40;;
20462;SDS011;10390;53.566;9.980;2023-07-22T13:42:33;6.97;;;6.28;;
20462;SDS011;10390;53.566;9.980;2023-07-22T13:44:58;6.35;;;5.75;;
20462;SDS011;10390;53.566;9.980;2023-07-22T13:47:30;7.28;;;6.57;;
20462;SDS011;10390;53.566;9.980;2023-07-22T13:49:55;6.70;;;6.10;;
20462;SDS011;10390;53.566;9.980;2023-07-22T13:52:21;6.38;;;5.78;;
20462;SDS011;10390;53.566;9.980;2023-07-22T13:54:49;6.57;;;5.97;;
20462;SDS011;10390;53.566;9.980;2023-07-22T13:57:16;6.72;;;6.10;;
20462;SDS011;10390;53.566;9.980;2023-07-22T13:59:41;7.22;;;6.53;;
20462;SDS011;10390;53.566;9.980;2023-07-22T14:02:07;7.32;;;6.47;;
20462;SDS011;10390;53.566;9.980;2023-07-22T14:04:32;7.75;;;6.95;;
20462;SDS011;10390;53.566;9.980;2023-07-22T14:06:58;7.70;;;7.00;;
20462;SDS011;10390;53.566;9.980;2023-07-22T14:09:24;7.38;;;6.68;;
20462;SDS011;10390;53.566;9.980;2023-07-22T14:11:49;7.43;;;6.43;;
20462;SDS011;10390;53.566;9.980;2023-07-22T14:14:15;7.15;;;6.53;;
20462;SDS011;10390;53.566;9.980;2023-07-22T14:16:41;7.57;;;6.85;;
20462;SDS011;10390;53.566;9.980;2023-07-22T14:19:06;7.70;;;6.90;;
20462;SDS011;10390;53.566;9.980;2023-07-22T14:21:32;6.95;;;6.25;;
20462;SDS011;10390;53.566;9.980;2023-07-22T14:23:57;7.05;;;6.35;;
20462;SDS011;10390;53.566;9.980;2023-07-22T14:26:23;6.93;;;6.28;;
20462;SDS011;10390;53.566;9.980;2023-07-22T14:28:49;7.10;;;6.47;;
20462;SDS011;10390;53.566;9.980;2023-07-22T14:31:14;6.93;;;6.25;;
20462;SDS011;10390;53.566;9.980;2023-07-22T14:33:40;7.60;;;6.90;;
20462;SDS011;10390;53.566;9.980;2023-07-22T14:36:05;7.38;;;6.68;;
20462;SDS011;10390;53.566;9.980;2023-07-22T14:38:31;7.25;;;6.55;;
20462;SDS011;10390;53.566;9.980;2023-07-22T14:40:57;7.00;;;6.40;;
20462;SDS011;10390;53.566;9.980;2023-07-22T14:43:22;6.80;;;6.10;;
20462;SDS011;10390;53.566;9.980;2023-07-22T14:45:48;6.95;;;6.35;;
20462;SDS011;10390;53.566;9.980;2023-07-22T14:48:14;6.82;;;6.22;;
20462;SDS011;10390;53.566;9.980;2023-07-22T14:50:39;6.15;;;5.55;;
20462;SDS011;10390;53.566;9.980;2023-07-22T14:53:05;6.50;;;5.90;;
20462;SDS011;10390;53.566;9.980;2023-07-22T14:55:30;7.70;;;6.90;;
20462;SDS011;10390;53.566;9.980;2023-07-22T14:57:56;7.50;;;6.80;;
20462;SDS011;10390;53.566;9.980;2023-07-22T15:00:22;7.20;;;6.50;;
20462;SDS011;10390;53.566;9.980;2023-07-22T15:02:48;7.38;;;6.68;;